sensor_id;sensor_type;location;lat;lon;timestamp;pressure;altitude;pressure_sealevel;temperature;humidity
21902;BME280;11115;46.038;14.612;2023-12-20T00:01:43;98495.13;;;-2.22;100.00
21902;BME280;11115;46.038;14.612;2023-12-20T00:04:14;98485.72;;;-2.38;100.00
21902;BME280;11115;46.038;14.612;2023-12-20T00:06:43;98497.38;;;-2.19;100.00
21902;BME280;11115;46.038;14.612;2023-12-20T00:09:11;98489.34;;;-2.26;100.00
21902;BME280;11115;46.038;14.612;2023-12-20T00:11:39;98467.00;;;-2.39;100.00
21902;BME280;11115;46.038;14.612;2023-12-20T00:14:08;98476.16;;;-2.22;100.00
21902;BME280;11115;46.038;14.612;2023-12-20T00:16:37;98472.63;;;-2.23;100.00
21902;BME280;11115;46.038;14.612;2023-12-20T00:19:05;98477.06;;;-2.10;100.00
21902;BME280;11115;46.038;14.612;2023-12-20T00:21:34;98472.25;;;-2.08;100.00
21902;BME280;11115;46.038;14.612;2023-12-20T00:24:03;98467.41;;;-2.06;100.00
21902;BME280;11115;46.038;14.612;2023-12-20T00:26:31;98446.75;;;-2.37;100.00
21902;BME280;11115;46.038;14.612;2023-12-20T00:28:59;98461.88;;;-2.29;100.00
21902;BME280;11115;46.038;14.612;2023-12-20T00:31:27;98423.72;;;-2.46;100.00
21902;BME280;11115;46.038;14.612;2023-12-20T00:33:56;98443.41;;;-2.21;100.00
21902;BME280;11115;46.038;14.612;2023-12-20T00:36:24;98448.03;;;-2.39;100.00
21902;BME280;11115;46.038;14.612;2023-12-20T00:38:52;98442.75;;;-2.53;100.00
21902;BME280;11115;46.038;14.612;2023-12-20T00:41:20;98442.00;;;-2.41;100.00
21902;BME280;11115;46.038;14.612;2023-12-20T00:43:48;98437.03;;;-2.45;100.00
21902;BME280;11115;46.038;14.612;2023-12-20T00:46:16;98440.03;;;-2.34;100.00
21902;BME280;11115;46.038;14.612;2023-12-20T00:48:44;98430.59;;;-2.14;100.00
21902;BME280;11115;46.038;14.612;2023-12-20T00:51:13;98427.53;;;-2.35;100.00
21902;BME280;11115;46.038;14.612;2023-12-20T00:53:41;98431.75;;;-2.39;100.00
21902;BME280;11115;46.038;14.612;2023-12-20T00:56:10;98422.28;;;-2.30;100.00
21902;BME280;11115;46.038;14.612;2023-12-20T00:58:38;98403.72;;;-2.45;100.00
21902;BME280;11115;46.038;14.612;2023-12-20T01:01:06;98409.97;;;-2.45;100.00
21902;BME280;11115;46.038;14.612;2023-12-20T01:03:34;98423.50;;;-2.45;100.00
21902;BME280;11115;46.038;14.612;2023-12-20T01:06:03;98405.28;;;-2.37;100.00
21902;BME280;11115;46.038;14.612;2023-12-20T01:08:31;98406.22;;;-2.32;100.00
21902;BME280;11115;46.038;14.612;2023-12-20T01:11:03;98409.84;;;-2.20;100.00
21902;BME280;11115;46.038;14.612;2023-12-20T01:13:32;98386.31;;;-2.37;100.00
21902;BME280;11115;46.038;14.612;2023-12-20T01:16:00;98378.72;;;-2.47;100.00
21902;BME280;11115;46.038;14.612;2023-12-20T01:18:28;98408.31;;;-2.16;100.00
21902;BME280;11115;46.038;14.612;2023-12-20T01:21:01;98405.47;;;-2.21;100.00
21902;BME280;11115;46.038;14.612;2023-12-20T01:23:30;98404.28;;;-2.25;100.00
21902;BME280;11115;46.038;14.612;2023-12-20T01:25:58;98398.31;;;-2.15;100.00
21902;BME280;11115;46.038;14.612;2023-12-20T01:28:27;98399.81;;;-2.19;100.00
21902;BME280;11115;46.038;14.612;2023-12-20T01:30:55;98390.03;;;-2.20;100.00
21902;BME280;11115;46.038;14.612;2023-12-20T01:33:26;98387.94;;;-2.18;100.00
21902;BME280;11115;46.038;14.612;2023-12-20T01:35:54;98387.31;;;-2.20;100.00
21902;BME280;11115;46.038;14.612;2023-12-20T01:38:22;98381.81;;;-2.14;100.00
21902;BME280;11115;46.038;14.612;2023-12-20T01:40:50;98347.84;;;-2.28;100.00
21902;BME280;11115;46.038;14.612;2023-12-20T01:43:18;98293.75;;;-2.64;100.00
21902;BME280;11115;46.038;14.612;2023-12-20T01:45:47;98340.53;;;-2.27;100.00
21902;BME280;11115;46.038;14.612;2023-12-20T01:48:16;98353.06;;;-2.15;100.00
21902;BME280;11115;46.038;14.612;2023-12-20T01:50:45;98358.69;;;-2.16;100.00
21902;BME280;11115;46.038;14.612;2023-12-20T01:53:13;98353.38;;;-2.23;100.00
21902;BME280;11115;46.038;14.612;2023-12-20T01:55:43;98346.97;;;-2.10;100.00
21902;BME280;11115;46.038;14.612;2023-12-20T01:58:12;98343.03;;;-2.14;100.00
21902;BME280;11115;46.038;14.612;2023-12-20T02:00:41;98336.56;;;-2.13;100.00
21902;BME280;11115;46.038;14.612;2023-12-20T02:03:09;98334.00;;;-2.08;100.00
21902;BME280;11115;46.038;14.612;2023-12-20T02:05:38;98326.34;;;-2.11;100.00
21902;BME280;11115;46.038;14.612;2023-12-20T02:08:06;98325.88;;;-2.08;100.00
21902;BME280;11115;46.038;14.612;2023-12-20T02:10:34;98321.88;;;-2.05;100.00
21902;BME280;11115;46.038;14.612;2023-12-20T02:13:03;98309.66;;;-2.26;100.00
21902;BME280;11115;46.038;14.612;2023-12-20T02:15:32;98311.44;;;-2.20;100.00
21902;BME280;11115;46.038;14.612;2023-12-20T02:18:00;98267.78;;;-2.42;100.00
21902;BME280;11115;46.038;14.612;2023-12-20T02:20:28;98309.22;;;-2.23;100.00
21902;BME280;11115;46.038;14.612;2023-12-20T02:22:56;98312.16;;;-2.13;100.00
21902;BME280;11115;46.038;14.612;2023-12-20T02:25:24;98260.59;;;-2.48;100.00
21902;BME280;11115;46.038;14.612;2023-12-20T02:27:53;98303.69;;;-2.17;100.00
21902;BME280;11115;46.038;14.612;2023-12-20T02:30:21;98301.31;;;-2.13;100.00
21902;BME280;11115;46.038;14.612;2023-12-20T02:32:50;98298.97;;;-2.21;100.00
21902;BME280;11115;46.038;14.612;2023-12-20T02:35:19;98292.53;;;-2.08;100.00
21902;BME280;11115;46.038;14.612;2023-12-20T02:37:47;98291.47;;;-2.07;100.00
21902;BME280;11115;46.038;14.612;2023-12-20T02:40:15;98287.47;;;-2.05;100.00
21902;BME280;11115;46.038;14.612;2023-12-20T02:42:43;98251.19;;;-2.34;100.00
21902;BME280;11115;46.038;14.612;2023-12-20T02:45:13;98283.56;;;-2.09;100.00
21902;BME280;11115;46.038;14.612;2023-12-20T02:47:41;98286.41;;;-2.04;100.00
21902;BME280;11115;46.038;14.612;2023-12-20T02:50:10;98293.47;;;-2.03;100.00
21902;BME280;11115;46.038;14.612;2023-12-20T02:52:38;98282.84;;;-2.04;100.00
21902;BME280;11115;46.038;14.612;2023-12-20T02:55:06;98284.97;;;-2.06;100.00
21902;BME280;11115;46.038;14.612;2023-12-20T02:57:34;98265.25;;;-2.14;100.00
21902;BME280;11115;46.038;14.612;2023-12-20T03:00:03;98265.25;;;-2.14;100.00
21902;BME280;11115;46.038;14.612;2023-12-20T03:02:35;98283.19;;;-2.13;100.00
21902;BME280;11115;46.038;14.612;2023-12-20T03:05:03;98287.78;;;-2.13;100.00
21902;BME280;11115;46.038;14.612;2023-12-20T03:07:32;98273.78;;;-2.10;100.00
21902;BME280;11115;46.038;14.612;2023-12-20T03:10:00;98277.91;;;-2.07;100.00
21902;BME280;11115;46.038;14.612;2023-12-20T03:12:45;98267.88;;;-2.07;100.00
21902;BME280;11115;46.038;14.612;2023-12-20T03:15:13;98273.91;;;-2.05;100.00
21902;BME280;11115;46.038;14.612;2023-12-20T03:17:42;98275.91;;;-2.12;100.00
21902;BME280;11115;46.038;14.612;2023-12-20T03:20:11;98275.44;;;-2.09;100.00
21902;BME280;11115;46.038;14.612;2023-12-20T03:22:39;98268.09;;;-2.20;100.00
21902;BME280;11115;46.038;14.612;2023-12-20T03:25:07;98266.44;;;-2.21;100.00
21902;BME280;11115;46.038;14.612;2023-12-20T03:27:38;98264.59;;;-2.09;100.00
21902;BME280;11115;46.038;14.612;2023-12-20T03:30:07;98268.59;;;-2.11;100.00
21902;BME280;11115;46.038;14.612;2023-12-20T03:32:37;98271.75;;;-2.15;100.00
21902;BME280;11115;46.038;14.612;2023-12-20T03:35:06;98269.41;;;-2.11;100.00
21902;BME280;11115;46.038;14.612;2023-12-20T03:37:34;98261.97;;;-2.16;100.00
21902;BME280;11115;46.038;14.612;2023-12-20T03:40:03;98261.28;;;-2.11;100.00
21902;BME280;11115;46.038;14.612;2023-12-20T03:42:31;98233.06;;;-2.33;100.00
21902;BME280;11115;46.038;14.612;2023-12-20T03:44:59;98252.06;;;-2.22;100.00
21902;BME280;11115;46.038;14.612;2023-12-20T03:47:27;98257.84;;;-2.18;100.00
21902;BME280;11115;46.038;14.612;2023-12-20T03:49:55;98254.22;;;-2.12;100.00
21902;BME280;11115;46.038;14.612;2023-12-20T03:52:24;98254.22;;;-2.12;100.00
21902;BME280;11115;46.038;14.612;2023-12-20T03:54:52;98259.88;;;-2.02;100.00
21902;BME280;11115;46.038;14.612;2023-12-20T03:57:20;98247.50;;;-2.09;100.00
21902;BME280;11115;46.038;14.612;2023-12-20T03:59:48;98251.03;;;-2.09;100.00
21902;BME280;11115;46.038;14.612;2023-12-20T04:02:16;98243.09;;;-2.22;100.00
21902;BME280;11115;46.038;14.612;2023-12-20T04:04:45;98217.88;;;-2.34;100.00
21902;BME280;11115;46.038;14.612;2023-12-20T04:07:13;98242.41;;;-2.18;100.00
21902;BME280;11115;46.038;14.612;2023-12-20T04:09:42;98238.88;;;-2.30;100.00
21902;BME280;11115;46.038;14.612;2023-12-20T04:12:10;98234.63;;;-2.26;100.00
21902;BME280;11115;46.038;14.612;2023-12-20T04:14:38;98196.88;;;-2.39;100.00
21902;BME280;11115;46.038;14.612;2023-12-20T04:17:06;98221.66;;;-2.24;100.00
21902;BME280;11115;46.038;14.612;2023-12-20T04:19:35;98227.03;;;-2.35;100.00
21902;BME280;11115;46.038;14.612;2023-12-20T04:22:03;98231.22;;;-2.21;100.00
21902;BME280;11115;46.038;14.612;2023-12-20T04:24:31;98220.50;;;-2.16;100.00
21902;BME280;11115;46.038;14.612;2023-12-20T04:26:59;98227.69;;;-2.10;100.00
21902;BME280;11115;46.038;14.612;2023-12-20T04:29:28;98222.16;;;-2.03;100.00
21902;BME280;11115;46.038;14.612;2023-12-20T04:31:56;98211.31;;;-2.03;100.00
21902;BME280;11115;46.038;14.612;2023-12-20T04:34:24;98216.63;;;-1.97;100.00
21902;BME280;11115;46.038;14.612;2023-12-20T04:36:52;98218.28;;;-2.07;100.00
21902;BME280;11115;46.038;14.612;2023-12-20T04:39:21;98234.19;;;-2.11;100.00
21902;BME280;11115;46.038;14.612;2023-12-20T04:41:49;98230.63;;;-2.23;100.00
21902;BME280;11115;46.038;14.612;2023-12-20T04:44:17;98227.69;;;-2.10;100.00
21902;BME280;11115;46.038;14.612;2023-12-20T04:46:45;98222.88;;;-2.08;100.00
21902;BME280;11115;46.038;14.612;2023-12-20T04:49:13;98224.88;;;-2.03;100.00
21902;BME280;11115;46.038;14.612;2023-12-20T04:51:42;98220.00;;;-2.13;100.00
21902;BME280;11115;46.038;14.612;2023-12-20T04:54:10;98200.56;;;-2.22;100.00
21902;BME280;11115;46.038;14.612;2023-12-20T04:56:38;98200.00;;;-2.24;100.00
21902;BME280;11115;46.038;14.612;2023-12-20T04:59:06;98212.72;;;-2.24;100.00
21902;BME280;11115;46.038;14.612;2023-12-20T05:01:34;98209.78;;;-2.11;100.00
21902;BME280;11115;46.038;14.612;2023-12-20T05:04:03;98204.47;;;-2.18;100.00
21902;BME280;11115;46.038;14.612;2023-12-20T05:06:31;98167.22;;;-2.34;100.00
21902;BME280;11115;46.038;14.612;2023-12-20T05:08:59;98198.47;;;-2.31;100.00
21902;BME280;11115;46.038;14.612;2023-12-20T05:11:27;98168.38;;;-2.41;100.00
21902;BME280;11115;46.038;14.612;2023-12-20T05:13:56;98159.31;;;-2.47;100.00
21902;BME280;11115;46.038;14.612;2023-12-20T05:16:24;98179.94;;;-2.34;100.00
21902;BME280;11115;46.038;14.612;2023-12-20T05:18:52;98179.00;;;-2.40;100.00
21902;BME280;11115;46.038;14.612;2023-12-20T05:21:20;98173.09;;;-2.49;100.00
21902;BME280;11115;46.038;14.612;2023-12-20T05:23:48;98140.44;;;-2.54;100.00
21902;BME280;11115;46.038;14.612;2023-12-20T05:26:16;98175.22;;;-2.39;100.00
21902;BME280;11115;46.038;14.612;2023-12-20T05:28:44;98167.44;;;-2.35;100.00
21902;BME280;11115;46.038;14.612;2023-12-20T05:31:12;98166.84;;;-2.37;100.00
21902;BME280;11115;46.038;14.612;2023-12-20T05:33:40;98171.38;;;-2.31;100.00
21902;BME280;11115;46.038;14.612;2023-12-20T05:36:09;98162.16;;;-2.42;100.00
21902;BME280;11115;46.038;14.612;2023-12-20T05:38:40;98173.84;;;-2.30;100.00
21902;BME280;11115;46.038;14.612;2023-12-20T05:41:08;98145.66;;;-2.40;100.00
21902;BME280;11115;46.038;14.612;2023-12-20T05:43:36;98167.72;;;-2.25;100.00
21902;BME280;11115;46.038;14.612;2023-12-20T05:46:04;98171.47;;;-2.26;100.00
21902;BME280;11115;46.038;14.612;2023-12-20T05:48:32;98145.78;;;-2.47;100.00
21902;BME280;11115;46.038;14.612;2023-12-20T05:51:01;98160.97;;;-2.46;100.00
21902;BME280;11115;46.038;14.612;2023-12-20T05:53:29;98121.13;;;-2.57;100.00
21902;BME280;11115;46.038;14.612;2023-12-20T05:55:57;98151.06;;;-2.40;100.00
21902;BME280;11115;46.038;14.612;2023-12-20T05:58:26;98155.31;;;-2.45;100.00
21902;BME280;11115;46.038;14.612;2023-12-20T06:00:54;98139.63;;;-2.66;100.00
21902;BME280;11115;46.038;14.612;2023-12-20T06:03:22;98151.88;;;-2.52;100.00
21902;BME280;11115;46.038;14.612;2023-12-20T06:05:51;98157.09;;;-2.50;100.00
21902;BME280;11115;46.038;14.612;2023-12-20T06:08:36;98158.63;;;-2.42;100.00
21902;BME280;11115;46.038;14.612;2023-12-20T06:11:04;98146.84;;;-2.48;100.00
21902;BME280;11115;46.038;14.612;2023-12-20T06:13:33;98170.63;;;-2.38;100.00
21902;BME280;11115;46.038;14.612;2023-12-20T06:16:03;98170.63;;;-2.38;100.00
21902;BME280;11115;46.038;14.612;2023-12-20T06:18:31;98166.84;;;-2.49;100.00
21902;BME280;11115;46.038;14.612;2023-12-20T06:20:59;98133.97;;;-2.64;100.00
21902;BME280;11115;46.038;14.612;2023-12-20T06:23:27;98156.84;;;-2.49;100.00
21902;BME280;11115;46.038;14.612;2023-12-20T06:25:55;98161.31;;;-2.42;100.00
21902;BME280;11115;46.038;14.612;2023-12-20T06:28:23;98154.13;;;-2.49;100.00
21902;BME280;11115;46.038;14.612;2023-12-20T06:30:51;98157.44;;;-2.47;100.00
21902;BME280;11115;46.038;14.612;2023-12-20T06:33:21;98153.91;;;-2.47;100.00
21902;BME280;11115;46.038;14.612;2023-12-20T06:35:50;98152.84;;;-2.46;100.00
21902;BME280;11115;46.038;14.612;2023-12-20T06:38:18;98160.00;;;-2.52;100.00
21902;BME280;11115;46.038;14.612;2023-12-20T06:40:47;98137.16;;;-2.67;100.00
21902;BME280;11115;46.038;14.612;2023-12-20T06:43:16;98158.34;;;-2.53;100.00
21902;BME280;11115;46.038;14.612;2023-12-20T06:46:04;98161.69;;;-2.51;100.00
21902;BME280;11115;46.038;14.612;2023-12-20T06:48:33;98147.06;;;-2.50;100.00
21902;BME280;11115;46.038;14.612;2023-12-20T06:51:01;98156.97;;;-2.43;100.00
21902;BME280;11115;46.038;14.612;2023-12-20T06:53:30;98159.78;;;-2.50;100.00
21902;BME280;11115;46.038;14.612;2023-12-20T06:55:58;98161.69;;;-2.27;100.00
21902;BME280;11115;46.038;14.612;2023-12-20T06:58:26;98170.50;;;-2.32;100.00
21902;BME280;11115;46.038;14.612;2023-12-20T07:00:55;98147.41;;;-2.34;100.00
21902;BME280;11115;46.038;14.612;2023-12-20T07:03:23;98163.09;;;-2.36;100.00
21902;BME280;11115;46.038;14.612;2023-12-20T07:05:52;98157.19;;;-2.45;100.00
21902;BME280;11115;46.038;14.612;2023-12-20T07:08:20;98161.78;;;-2.46;100.00
21902;BME280;11115;46.038;14.612;2023-12-20T07:10:48;98146.09;;;-2.67;100.00
21902;BME280;11115;46.038;14.612;2023-12-20T07:13:16;98156.81;;;-2.60;100.00
21902;BME280;11115;46.038;14.612;2023-12-20T07:15:44;98156.47;;;-2.52;100.00
21902;BME280;11115;46.038;14.612;2023-12-20T07:18:12;98141.97;;;-2.58;100.00
21902;BME280;11115;46.038;14.612;2023-12-20T07:20:41;98158.81;;;-2.56;100.00
21902;BME280;11115;46.038;14.612;2023-12-20T07:23:09;98159.56;;;-2.37;100.00
21902;BME280;11115;46.038;14.612;2023-12-20T07:25:38;98160.38;;;-2.36;100.00
21902;BME280;11115;46.038;14.612;2023-12-20T07:28:06;98157.69;;;-2.25;100.00
21902;BME280;11115;46.038;14.612;2023-12-20T07:30:34;98153.69;;;-2.22;100.00
21902;BME280;11115;46.038;14.612;2023-12-20T07:33:02;98143.53;;;-2.15;100.00
21902;BME280;11115;46.038;14.612;2023-12-20T07:35:30;98150.13;;;-2.34;100.00
21902;BME280;11115;46.038;14.612;2023-12-20T07:37:59;98154.03;;;-2.19;100.00
21902;BME280;11115;46.038;14.612;2023-12-20T07:40:27;98161.84;;;-2.10;100.00
21902;BME280;11115;46.038;14.612;2023-12-20T07:42:55;98143.09;;;-2.12;100.00
21902;BME280;11115;46.038;14.612;2023-12-20T07:45:23;98146.84;;;-2.13;100.00
21902;BME280;11115;46.038;14.612;2023-12-20T07:47:51;98144.38;;;-2.15;100.00
21902;BME280;11115;46.038;14.612;2023-12-20T07:50:20;98155.31;;;-1.98;100.00
21902;BME280;11115;46.038;14.612;2023-12-20T07:52:48;98164.78;;;-1.89;100.00
21902;BME280;11115;46.038;14.612;2023-12-20T07:55:17;98136.69;;;-1.83;100.00
21902;BME280;11115;46.038;14.612;2023-12-20T07:57:45;98136.69;;;-1.83;100.00
21902;BME280;11115;46.038;14.612;2023-12-20T08:00:14;98158.97;;;-1.69;100.00
21902;BME280;11115;46.038;14.612;2023-12-20T08:02:42;98139.66;;;-1.72;100.00
21902;BME280;11115;46.038;14.612;2023-12-20T08:05:11;98145.84;;;-1.60;100.00
21902;BME280;11115;46.038;14.612;2023-12-20T08:07:42;98136.78;;;-1.66;100.00
21902;BME280;11115;46.038;14.612;2023-12-20T08:10:10;98146.66;;;-1.48;100.00
21902;BME280;11115;46.038;14.612;2023-12-20T08:12:39;98147.25;;;-1.46;100.00
21902;BME280;11115;46.038;14.612;2023-12-20T08:15:08;98146.66;;;-1.48;100.00
21902;BME280;11115;46.038;14.612;2023-12-20T08:17:36;98120.19;;;-1.81;100.00
21902;BME280;11115;46.038;14.612;2023-12-20T08:20:04;98156.22;;;-1.45;100.00
21902;BME280;11115;46.038;14.612;2023-12-20T08:22:33;98161.13;;;-1.31;100.00
21902;BME280;11115;46.038;14.612;2023-12-20T08:25:01;98162.78;;;-1.30;100.00
21902;BME280;11115;46.038;14.612;2023-12-20T08:27:29;98175.59;;;-1.13;100.00
21902;BME280;11115;46.038;14.612;2023-12-20T08:29:58;98170.28;;;-1.20;100.00
21902;BME280;11115;46.038;14.612;2023-12-20T08:32:26;98181.31;;;-1.38;100.00
21902;BME280;11115;46.038;14.612;2023-12-20T08:34:54;98176.19;;;-1.11;100.00
21902;BME280;11115;46.038;14.612;2023-12-20T08:37:22;98169.53;;;-1.04;100.00
21902;BME280;11115;46.038;14.612;2023-12-20T08:39:50;98166.44;;;-0.96;100.00
21902;BME280;11115;46.038;14.612;2023-12-20T08:42:19;98167.34;;;-0.90;100.00
21902;BME280;11115;46.038;14.612;2023-12-20T08:44:47;98158.22;;;-0.84;100.00
21902;BME280;11115;46.038;14.612;2023-12-20T08:47:15;98125.78;;;-1.19;100.00
21902;BME280;11115;46.038;14.612;2023-12-20T08:49:45;98120.50;;;-1.26;100.00
21902;BME280;11115;46.038;14.612;2023-12-20T08:52:13;98167.94;;;-0.88;100.00
21902;BME280;11115;46.038;14.612;2023-12-20T08:54:41;98165.59;;;-0.68;100.00
21902;BME280;11115;46.038;14.612;2023-12-20T08:57:11;98165.34;;;-0.66;100.00
21902;BME280;11115;46.038;14.612;2023-12-20T08:59:39;98171.09;;;-0.63;100.00
21902;BME280;11115;46.038;14.612;2023-12-20T09:02:08;98175.41;;;-0.50;100.00
21902;BME280;11115;46.038;14.612;2023-12-20T09:04:36;98167.19;;;-0.55;100.00
21902;BME280;11115;46.038;14.612;2023-12-20T09:07:04;98163.53;;;-0.61;100.00
21902;BME280;11115;46.038;14.612;2023-12-20T09:09:32;98157.72;;;-0.52;100.00
21902;BME280;11115;46.038;14.612;2023-12-20T09:12:00;98170.28;;;-0.63;100.00
21902;BME280;11115;46.038;14.612;2023-12-20T09:14:28;98167.84;;;-0.48;100.00
21902;BME280;11115;46.038;14.612;2023-12-20T09:16:57;98171.06;;;-0.51;100.00
21902;BME280;11115;46.038;14.612;2023-12-20T09:19:25;98168.91;;;-0.49;100.00
21902;BME280;11115;46.038;14.612;2023-12-20T09:21:54;98165.03;;;-0.53;100.00
21902;BME280;11115;46.038;14.612;2023-12-20T09:24:22;98172.38;;;-0.53;100.00
21902;BME280;11115;46.038;14.612;2023-12-20T09:26:50;98175.50;;;-0.45;100.00
21902;BME280;11115;46.038;14.612;2023-12-20T09:29:18;98154.75;;;-0.51;100.00
21902;BME280;11115;46.038;14.612;2023-12-20T09:31:46;98162.34;;;-0.36;100.00
21902;BME280;11115;46.038;14.612;2023-12-20T09:34:15;98165.78;;;-0.24;100.00
21902;BME280;11115;46.038;14.612;2023-12-20T09:36:43;98160.78;;;-0.15;100.00
21902;BME280;11115;46.038;14.612;2023-12-20T09:39:14;98154.34;;;-0.09;100.00
21902;BME280;11115;46.038;14.612;2023-12-20T09:41:51;98137.44;;;-0.11;100.00
21902;BME280;11115;46.038;14.612;2023-12-20T09:44:25;98113.00;;;-0.28;100.00
21902;BME280;11115;46.038;14.612;2023-12-20T09:46:55;98150.53;;;-0.08;100.00
21902;BME280;11115;46.038;14.612;2023-12-20T09:49:25;98112.78;;;-0.05;100.00
21902;BME280;11115;46.038;14.612;2023-12-20T09:51:55;98125.00;;;0.53;100.00
21902;BME280;11115;46.038;14.612;2023-12-20T09:54:25;98101.91;;;0.34;100.00
21902;BME280;11115;46.038;14.612;2023-12-20T09:56:54;98128.25;;;0.50;100.00
21902;BME280;11115;46.038;14.612;2023-12-20T09:59:22;98112.69;;;0.46;100.00
21902;BME280;11115;46.038;14.612;2023-12-20T10:01:52;98109.81;;;0.79;100.00
21902;BME280;11115;46.038;14.612;2023-12-20T10:04:24;98115.94;;;0.91;100.00
21902;BME280;11115;46.038;14.612;2023-12-20T10:06:56;98122.06;;;1.04;100.00
21902;BME280;11115;46.038;14.612;2023-12-20T10:09:24;98117.88;;;1.18;100.00
21902;BME280;11115;46.038;14.612;2023-12-20T10:11:54;98133.41;;;0.96;100.00
21902;BME280;11115;46.038;14.612;2023-12-20T10:14:24;98124.53;;;0.78;100.00
21902;BME280;11115;46.038;14.612;2023-12-20T10:16:52;98124.41;;;0.95;100.00
21902;BME280;11115;46.038;14.612;2023-12-20T10:19:20;98116.66;;;0.82;100.00
21902;BME280;11115;46.038;14.612;2023-12-20T10:21:49;98116.94;;;1.07;100.00
21902;BME280;11115;46.038;14.612;2023-12-20T10:24:17;98121.13;;;0.93;100.00
21902;BME280;11115;46.038;14.612;2023-12-20T10:26:46;98121.34;;;1.13;100.00
21902;BME280;11115;46.038;14.612;2023-12-20T10:29:14;98113.72;;;0.88;100.00
21902;BME280;11115;46.038;14.612;2023-12-20T10:31:42;98103.06;;;1.09;100.00
21902;BME280;11115;46.038;14.612;2023-12-20T10:34:11;98115.66;;;1.74;100.00
21902;BME280;11115;46.038;14.612;2023-12-20T10:36:39;98098.72;;;2.14;100.00
21902;BME280;11115;46.038;14.612;2023-12-20T10:39:08;98104.53;;;1.86;100.00
21902;BME280;11115;46.038;14.612;2023-12-20T10:41:39;98065.94;;;1.67;100.00
21902;BME280;11115;46.038;14.612;2023-12-20T10:44:10;98091.00;;;1.64;100.00
21902;BME280;11115;46.038;14.612;2023-12-20T10:46:39;98090.59;;;1.45;100.00
21902;BME280;11115;46.038;14.612;2023-12-20T10:49:14;98060.16;;;1.26;100.00
21902;BME280;11115;46.038;14.612;2023-12-20T10:51:44;98077.47;;;1.42;100.00
21902;BME280;11115;46.038;14.612;2023-12-20T10:54:13;98088.25;;;1.59;100.00
21902;BME280;11115;46.038;14.612;2023-12-20T10:56:41;98091.25;;;1.57;100.00
21902;BME280;11115;46.038;14.612;2023-12-20T10:59:11;98082.03;;;1.68;100.00
21902;BME280;11115;46.038;14.612;2023-12-20T11:01:40;98083.09;;;1.62;100.00
21902;BME280;11115;46.038;14.612;2023-12-20T11:04:15;98080.50;;;1.45;100.00
21902;BME280;11115;46.038;14.612;2023-12-20T11:06:51;98067.16;;;1.49;100.00
21902;BME280;11115;46.038;14.612;2023-12-20T11:14:47;98063.41;;;1.55;100.00
21902;BME280;11115;46.038;14.612;2023-12-20T11:17:16;98063.78;;;1.69;100.00
21902;BME280;11115;46.038;14.612;2023-12-20T11:22:26;98062.91;;;2.00;100.00
21902;BME280;11115;46.038;14.612;2023-12-20T11:25:04;98076.59;;;2.10;100.00
21902;BME280;11115;46.038;14.612;2023-12-20T11:27:33;98064.94;;;2.25;100.00
21902;BME280;11115;46.038;14.612;2023-12-20T11:30:05;98071.56;;;2.44;100.00
21902;BME280;11115;46.038;14.612;2023-12-20T11:32:36;98076.03;;;2.61;100.00
21902;BME280;11115;46.038;14.612;2023-12-20T11:37:36;98048.00;;;3.01;100.00
21902;BME280;11115;46.038;14.612;2023-12-20T11:40:07;98051.03;;;3.71;100.00
21902;BME280;11115;46.038;14.612;2023-12-20T11:42:48;98004.66;;;4.30;100.00
21902;BME280;11115;46.038;14.612;2023-12-20T11:45:19;97997.69;;;4.53;100.00
21902;BME280;11115;46.038;14.612;2023-12-20T11:47:50;98014.59;;;5.14;100.00
21902;BME280;11115;46.038;14.612;2023-12-20T11:50:21;98018.66;;;5.17;100.00
21902;BME280;11115;46.038;14.612;2023-12-20T11:52:52;98006.06;;;5.16;100.00
21902;BME280;11115;46.038;14.612;2023-12-20T11:55:20;98018.28;;;4.40;100.00
21902;BME280;11115;46.038;14.612;2023-12-20T11:57:50;98006.09;;;4.02;100.00
21902;BME280;11115;46.038;14.612;2023-12-20T12:00:18;97995.22;;;3.77;100.00
21902;BME280;11115;46.038;14.612;2023-12-20T12:02:59;98013.31;;;3.57;100.00
21902;BME280;11115;46.038;14.612;2023-12-20T12:05:30;98005.66;;;3.34;100.00
21902;BME280;11115;46.038;14.612;2023-12-20T12:08:00;98012.75;;;3.55;100.00
21902;BME280;11115;46.038;14.612;2023-12-20T12:10:29;97994.41;;;3.61;100.00
21902;BME280;11115;46.038;14.612;2023-12-20T12:12:57;98011.66;;;3.72;100.00
21902;BME280;11115;46.038;14.612;2023-12-20T12:15:26;98002.63;;;3.71;100.00
21902;BME280;11115;46.038;14.612;2023-12-20T12:17:55;98026.94;;;3.93;100.00
21902;BME280;11115;46.038;14.612;2023-12-20T12:20:23;98026.88;;;4.03;100.00
21902;BME280;11115;46.038;14.612;2023-12-20T12:23:02;98026.03;;;4.18;100.00
21902;BME280;11115;46.038;14.612;2023-12-20T12:25:34;98024.84;;;4.39;100.00
21902;BME280;11115;46.038;14.612;2023-12-20T12:28:07;98017.88;;;4.72;100.00
21902;BME280;11115;46.038;14.612;2023-12-20T12:30:35;98020.00;;;5.25;100.00
21902;BME280;11115;46.038;14.612;2023-12-20T12:33:15;98029.53;;;5.66;100.00
21902;BME280;11115;46.038;14.612;2023-12-20T12:35:44;98007.41;;;5.24;100.00
21902;BME280;11115;46.038;14.612;2023-12-20T12:38:12;98008.50;;;4.83;100.00
21902;BME280;11115;46.038;14.612;2023-12-20T12:40:40;98005.47;;;4.31;100.00
21902;BME280;11115;46.038;14.612;2023-12-20T12:43:09;98004.97;;;4.13;100.00
21902;BME280;11115;46.038;14.612;2023-12-20T12:45:37;97996.59;;;3.64;100.00
21902;BME280;11115;46.038;14.612;2023-12-20T12:48:05;97981.56;;;3.61;100.00
21902;BME280;11115;46.038;14.612;2023-12-20T12:50:34;97932.41;;;3.21;100.00
21902;BME280;11115;46.038;14.612;2023-12-20T12:53:02;97974.47;;;3.45;100.00
21902;BME280;11115;46.038;14.612;2023-12-20T12:55:30;97978.03;;;3.35;100.00
21902;BME280;11115;46.038;14.612;2023-12-20T12:57:59;97995.78;;;3.58;100.00
21902;BME280;11115;46.038;14.612;2023-12-20T13:00:27;97981.59;;;3.36;100.00
21902;BME280;11115;46.038;14.612;2023-12-20T13:02:55;97980.78;;;3.30;100.00